sensor_id;sensor_type;location;lat;lon;timestamp;pressure;altitude;pressure_sealevel;temperature;humidity
57885;BME280;43703;51.060;-0.086;2023-04-07T00:01:09;100393.47;;;4.01;66.81
57885;BME280;43703;51.060;-0.086;2023-04-07T00:03:34;100396.62;;;3.55;67.25
57885;BME280;43703;51.060;-0.086;2023-04-07T00:05:59;100398.58;;;3.28;67.53
57885;BME280;43703;51.060;-0.086;2023-04-07T00:08:24;100401.48;;;3.17;68.80
57885;BME280;43703;51.060;-0.086;2023-04-07T00:10:49;100402.13;;;2.91;69.22
57885;BME280;43703;51.060;-0.086;2023-04-07T00:13:14;100400.39;;;2.85;68.52
57885;BME280;43703;51.060;-0.086;2023-04-07T00:15:39;100399.54;;;2.55;68.96
57885;BME280;43703;51.060;-0.086;2023-04-07T00:18:05;100401.61;;;2.79;68.54
57885;BME280;43703;51.060;-0.086;2023-04-07T00:20:30;100400.59;;;2.83;68.34
57885;BME280;43703;51.060;-0.086;2023-04-07T00:22:55;100398.91;;;3.38;67.43
57885;BME280;43703;51.060;-0.086;2023-04-07T00:25:20;100403.28;;;3.23;67.62
57885;BME280;43703;51.060;-0.086;2023-04-07T00:27:45;100404.79;;;3.68;67.42
57885;BME280;43703;51.060;-0.086;2023-04-07T00:30:11;100403.44;;;3.91;67.02
57885;BME280;43703;51.060;-0.086;2023-04-07T00:32:36;100404.23;;;3.75;67.23
57885;BME280;43703;51.060;-0.086;2023-04-07T00:35:01;100406.92;;;3.52;66.38
57885;BME280;43703;51.060;-0.086;2023-04-07T00:37:26;100409.82;;;3.88;67.22
57885;BME280;43703;51.060;-0.086;2023-04-07T00:39:51;100406.28;;;3.97;66.58
57885;BME280;43703;51.060;-0.086;2023-04-07T00:42:16;100405.17;;;3.61;66.80
57885;BME280;43703;51.060;-0.086;2023-04-07T00:44:41;100404.02;;;3.67;67.30
57885;BME280;43703;51.060;-0.086;2023-04-07T00:47:06;100403.52;;;3.25;66.81
57885;BME280;43703;51.060;-0.086;2023-04-07T00:49:31;100405.69;;;3.36;66.75
57885;BME280;43703;51.060;-0.086;2023-04-07T00:51:57;100406.79;;;3.79;66.65
57885;BME280;43703;51.060;-0.086;2023-04-07T00:54:23;100409.82;;;3.49;66.39
57885;BME280;43703;51.060;-0.086;2023-04-07T00:56:47;100409.76;;;3.25;66.55
57885;BME280;43703;51.060;-0.086;2023-04-07T00:59:12;100415.23;;;3.46;66.27
57885;BME280;43703;51.060;-0.086;2023-04-07T01:01:43;100415.89;;;3.66;66.60
57885;BME280;43703;51.060;-0.086;2023-04-07T01:04:06;100416.08;;;3.80;66.57
57885;BME280;43703;51.060;-0.086;2023-04-07T01:06:30;100415.88;;;3.64;66.50
57885;BME280;43703;51.060;-0.086;2023-04-07T01:08:56;100415.20;;;3.36;65.92
57885;BME280;43703;51.060;-0.086;2023-04-07T01:11:23;100417.00;;;2.92;66.80
57885;BME280;43703;51.060;-0.086;2023-04-07T01:13:47;100413.25;;;2.70;66.94
57885;BME280;43703;51.060;-0.086;2023-04-07T01:16:11;100415.75;;;3.53;66.66
57885;BME280;43703;51.060;-0.086;2023-04-07T01:18:34;100417.19;;;3.60;65.87
57885;BME280;43703;51.060;-0.086;2023-04-07T01:21:03;100419.90;;;3.91;65.92
57885;BME280;43703;51.060;-0.086;2023-04-07T01:23:31;100419.62;;;4.33;65.33
57885;BME280;43703;51.060;-0.086;2023-04-07T01:25:57;100421.84;;;4.28;64.50
57885;BME280;43703;51.060;-0.086;2023-04-07T01:30:39;100422.82;;;3.81;63.73
57885;BME280;43703;51.060;-0.086;2023-04-07T01:33:04;100422.83;;;3.57;64.35
57885;BME280;43703;51.060;-0.086;2023-04-07T01:35:31;100423.72;;;4.09;65.21
57885;BME280;43703;51.060;-0.086;2023-04-07T01:37:54;100422.20;;;3.98;65.52
57885;BME280;43703;51.060;-0.086;2023-04-07T01:40:20;100425.41;;;3.70;65.85
57885;BME280;43703;51.060;-0.086;2023-04-07T01:42:45;100424.04;;;3.72;64.96
57885;BME280;43703;51.060;-0.086;2023-04-07T01:45:10;100419.73;;;3.83;64.93
57885;BME280;43703;51.060;-0.086;2023-04-07T01:47:35;100420.24;;;3.74;66.03
57885;BME280;43703;51.060;-0.086;2023-04-07T01:50:00;100417.86;;;2.91;65.95
57885;BME280;43703;51.060;-0.086;2023-04-07T01:52:25;100417.42;;;3.62;66.05
57885;BME280;43703;51.060;-0.086;2023-04-07T01:54:49;100420.93;;;4.01;65.69
57885;BME280;43703;51.060;-0.086;2023-04-07T01:57:14;100418.71;;;4.07;65.43
57885;BME280;43703;51.060;-0.086;2023-04-07T01:59:39;100420.67;;;2.79;65.80
57885;BME280;43703;51.060;-0.086;2023-04-07T02:02:04;100420.65;;;3.09;66.56
57885;BME280;43703;51.060;-0.086;2023-04-07T02:04:34;100419.05;;;3.79;65.81
57885;BME280;43703;51.060;-0.086;2023-04-07T02:06:59;100422.30;;;3.69;65.15
57885;BME280;43703;51.060;-0.086;2023-04-07T02:09:21;100421.26;;;3.51;65.39
57885;BME280;43703;51.060;-0.086;2023-04-07T02:11:47;100417.10;;;4.32;64.84
57885;BME280;43703;51.060;-0.086;2023-04-07T02:14:11;100418.59;;;4.10;65.07
57885;BME280;43703;51.060;-0.086;2023-04-07T02:16:36;100418.84;;;4.33;63.70
57885;BME280;43703;51.060;-0.086;2023-04-07T02:19:01;100418.78;;;4.42;64.26
57885;BME280;43703;51.060;-0.086;2023-04-07T02:21:26;100420.39;;;4.27;64.90
57885;BME280;43703;51.060;-0.086;2023-04-07T02:23:51;100422.21;;;4.13;64.58
57885;BME280;43703;51.060;-0.086;2023-04-07T02:26:16;100428.17;;;3.68;63.95
57885;BME280;43703;51.060;-0.086;2023-04-07T02:28:41;100424.91;;;3.91;64.37
57885;BME280;43703;51.060;-0.086;2023-04-07T02:31:06;100429.10;;;4.10;64.92
57885;BME280;43703;51.060;-0.086;2023-04-07T02:33:32;100429.21;;;3.77;64.20
57885;BME280;43703;51.060;-0.086;2023-04-07T02:35:57;100425.98;;;4.27;65.12
57885;BME280;43703;51.060;-0.086;2023-04-07T02:38:22;100424.74;;;4.05;64.98
57885;BME280;43703;51.060;-0.086;2023-04-07T02:40:48;100429.30;;;3.14;65.74
57885;BME280;43703;51.060;-0.086;2023-04-07T02:43:13;100434.39;;;2.67;66.24
57885;BME280;43703;51.060;-0.086;2023-04-07T02:45:38;100431.68;;;3.55;65.82
57885;BME280;43703;51.060;-0.086;2023-04-07T02:48:04;100435.16;;;4.02;65.27
57885;BME280;43703;51.060;-0.086;2023-04-07T02:50:28;100437.80;;;3.24;65.81
57885;BME280;43703;51.060;-0.086;2023-04-07T02:52:53;100440.65;;;3.90;66.02
57885;BME280;43703;51.060;-0.086;2023-04-07T02:55:19;100442.32;;;4.26;64.32
57885;BME280;43703;51.060;-0.086;2023-04-07T02:57:44;100440.09;;;4.01;65.16
57885;BME280;43703;51.060;-0.086;2023-04-07T03:00:10;100441.89;;;4.16;65.35
57885;BME280;43703;51.060;-0.086;2023-04-07T03:02:34;100438.73;;;3.08;64.73
57885;BME280;43703;51.060;-0.086;2023-04-07T03:04:59;100438.76;;;3.84;65.09
57885;BME280;43703;51.060;-0.086;2023-04-07T03:07:24;100436.60;;;2.45;66.55
57885;BME280;43703;51.060;-0.086;2023-04-07T03:09:49;100433.20;;;3.54;65.90
57885;BME280;43703;51.060;-0.086;2023-04-07T03:12:14;100430.06;;;3.98;65.61
57885;BME280;43703;51.060;-0.086;2023-04-07T03:14:39;100432.39;;;3.69;65.82
57885;BME280;43703;51.060;-0.086;2023-04-07T03:17:05;100425.70;;;4.20;65.08
57885;BME280;43703;51.060;-0.086;2023-04-07T03:19:30;100425.11;;;3.45;66.27
57885;BME280;43703;51.060;-0.086;2023-04-07T03:21:55;100426.18;;;3.46;65.33
57885;BME280;43703;51.060;-0.086;2023-04-07T03:24:20;100427.01;;;3.79;65.50
57885;BME280;43703;51.060;-0.086;2023-04-07T03:26:45;100427.46;;;3.72;65.61
57885;BME280;43703;51.060;-0.086;2023-04-07T03:29:10;100431.39;;;3.63;65.08
57885;BME280;43703;51.060;-0.086;2023-04-07T03:31:35;100432.13;;;3.78;65.68
57885;BME280;43703;51.060;-0.086;2023-04-07T03:34:00;100427.09;;;4.04;65.18
57885;BME280;43703;51.060;-0.086;2023-04-07T03:36:25;100431.83;;;3.36;65.71
57885;BME280;43703;51.060;-0.086;2023-04-07T03:38:51;100432.92;;;3.32;66.37
57885;BME280;43703;51.060;-0.086;2023-04-07T03:41:16;100433.84;;;2.93;65.20
57885;BME280;43703;51.060;-0.086;2023-04-07T03:43:41;100434.96;;;3.47;66.41
57885;BME280;43703;51.060;-0.086;2023-04-07T03:46:07;100430.95;;;3.70;65.84
57885;BME280;43703;51.060;-0.086;2023-04-07T03:48:32;100432.61;;;2.66;66.04
57885;BME280;43703;51.060;-0.086;2023-04-07T03:50:57;100433.68;;;3.62;65.41
57885;BME280;43703;51.060;-0.086;2023-04-07T03:53:22;100433.25;;;3.30;65.47
57885;BME280;43703;51.060;-0.086;2023-04-07T03:55:47;100434.08;;;3.46;65.05
57885;BME280;43703;51.060;-0.086;2023-04-07T03:58:12;100432.95;;;3.23;65.27
57885;BME280;43703;51.060;-0.086;2023-04-07T04:00:37;100432.32;;;3.46;65.71
57885;BME280;43703;51.060;-0.086;2023-04-07T04:03:02;100428.38;;;3.63;65.00
57885;BME280;43703;51.060;-0.086;2023-04-07T04:05:28;100429.66;;;3.77;65.00
57885;BME280;43703;51.060;-0.086;2023-04-07T04:07:53;100433.99;;;3.77;64.43
57885;BME280;43703;51.060;-0.086;2023-04-07T04:10:19;100438.39;;;4.30;63.32
57885;BME280;43703;51.060;-0.086;2023-04-07T04:12:46;100437.75;;;4.29;63.37
57885;BME280;43703;51.060;-0.086;2023-04-07T04:15:09;100442.81;;;3.82;64.64
57885;BME280;43703;51.060;-0.086;2023-04-07T04:17:33;100445.55;;;2.60;66.30
57885;BME280;43703;51.060;-0.086;2023-04-07T04:19:59;100443.37;;;3.56;66.20
57885;BME280;43703;51.060;-0.086;2023-04-07T04:22:24;100445.58;;;3.48;65.79
57885;BME280;43703;51.060;-0.086;2023-04-07T04:24:49;100448.15;;;2.54;65.44
57885;BME280;43703;51.060;-0.086;2023-04-07T04:27:14;100448.07;;;3.07;67.26
57885;BME280;43703;51.060;-0.086;2023-04-07T04:29:39;100453.25;;;3.31;65.99
57885;BME280;43703;51.060;-0.086;2023-04-07T04:32:05;100453.33;;;2.82;67.11
57885;BME280;43703;51.060;-0.086;2023-04-07T04:34:29;100449.19;;;3.40;66.19
57885;BME280;43703;51.060;-0.086;2023-04-07T04:36:55;100447.35;;;2.93;66.58
57885;BME280;43703;51.060;-0.086;2023-04-07T04:39:20;100448.14;;;2.93;66.55
57885;BME280;43703;51.060;-0.086;2023-04-07T04:41:45;100444.49;;;2.70;66.39
57885;BME280;43703;51.060;-0.086;2023-04-07T04:44:10;100446.98;;;3.12;66.54
57885;BME280;43703;51.060;-0.086;2023-04-07T04:46:35;100448.80;;;3.16;66.10
57885;BME280;43703;51.060;-0.086;2023-04-07T04:49:00;100450.85;;;3.20;66.37
57885;BME280;43703;51.060;-0.086;2023-04-07T04:51:25;100450.87;;;2.43;66.46
57885;BME280;43703;51.060;-0.086;2023-04-07T04:53:50;100454.19;;;2.35;67.07
57885;BME280;43703;51.060;-0.086;2023-04-07T04:56:15;100451.82;;;2.62;67.23
57885;BME280;43703;51.060;-0.086;2023-04-07T04:58:41;100452.35;;;2.47;67.44
57885;BME280;43703;51.060;-0.086;2023-04-07T05:01:06;100455.62;;;3.34;66.68
57885;BME280;43703;51.060;-0.086;2023-04-07T05:03:31;100458.97;;;3.30;66.26
57885;BME280;43703;51.060;-0.086;2023-04-07T05:05:56;100456.10;;;2.49;68.12
57885;BME280;43703;51.060;-0.086;2023-04-07T05:08:21;100452.48;;;3.28;66.94
57885;BME280;43703;51.060;-0.086;2023-04-07T05:10:46;100453.94;;;2.90;66.22
57885;BME280;43703;51.060;-0.086;2023-04-07T05:13:11;100452.43;;;3.51;66.37
57885;BME280;43703;51.060;-0.086;2023-04-07T05:15:36;100455.27;;;2.66;67.23
57885;BME280;43703;51.060;-0.086;2023-04-07T05:18:01;100460.06;;;3.34;66.18
57885;BME280;43703;51.060;-0.086;2023-04-07T05:20:26;100461.27;;;2.75;66.92
57885;BME280;43703;51.060;-0.086;2023-04-07T05:22:51;100465.21;;;3.02;66.07
57885;BME280;43703;51.060;-0.086;2023-04-07T05:25:17;100469.45;;;2.68;65.78
57885;BME280;43703;51.060;-0.086;2023-04-07T05:27:42;100475.34;;;3.31;65.12
57885;BME280;43703;51.060;-0.086;2023-04-07T05:30:08;100478.29;;;3.04;67.54
57885;BME280;43703;51.060;-0.086;2023-04-07T05:32:32;100482.96;;;2.42;67.41
57885;BME280;43703;51.060;-0.086;2023-04-07T05:34:57;100483.92;;;3.35;66.28
57885;BME280;43703;51.060;-0.086;2023-04-07T05:37:22;100482.23;;;3.68;64.88
57885;BME280;43703;51.060;-0.086;2023-04-07T05:39:47;100484.38;;;3.69;64.92
57885;BME280;43703;51.060;-0.086;2023-04-07T05:42:13;100488.58;;;2.81;67.11
57885;BME280;43703;51.060;-0.086;2023-04-07T05:44:38;100487.55;;;2.44;67.69
57885;BME280;43703;51.060;-0.086;2023-04-07T05:47:03;100490.60;;;3.31;66.42
57885;BME280;43703;51.060;-0.086;2023-04-07T05:49:28;100493.38;;;3.14;67.27
57885;BME280;43703;51.060;-0.086;2023-04-07T05:51:53;100496.58;;;3.27;66.32
57885;BME280;43703;51.060;-0.086;2023-04-07T05:54:19;100504.07;;;3.11;66.24
57885;BME280;43703;51.060;-0.086;2023-04-07T05:56:44;100509.25;;;3.32;66.30
57885;BME280;43703;51.060;-0.086;2023-04-07T05:59:09;100514.46;;;3.78;65.15
57885;BME280;43703;51.060;-0.086;2023-04-07T06:01:36;100521.02;;;3.37;66.12
57885;BME280;43703;51.060;-0.086;2023-04-07T06:03:59;100525.49;;;3.55;65.82
57885;BME280;43703;51.060;-0.086;2023-04-07T06:06:25;100529.76;;;3.09;66.86
57885;BME280;43703;51.060;-0.086;2023-04-07T06:08:50;100529.82;;;3.06;67.17
57885;BME280;43703;51.060;-0.086;2023-04-07T06:11:15;100531.54;;;2.95;66.56
57885;BME280;43703;51.060;-0.086;2023-04-07T06:13:40;100531.68;;;3.34;67.37
57885;BME280;43703;51.060;-0.086;2023-04-07T06:16:06;100538.01;;;1.83;68.41
57885;BME280;43703;51.060;-0.086;2023-04-07T06:18:31;100535.29;;;3.37;67.42
57885;BME280;43703;51.060;-0.086;2023-04-07T06:20:56;100538.74;;;4.02;66.90
57885;BME280;43703;51.060;-0.086;2023-04-07T06:23:21;100537.55;;;3.82;66.43
57885;BME280;43703;51.060;-0.086;2023-04-07T06:25:46;100539.57;;;4.10;66.81
57885;BME280;43703;51.060;-0.086;2023-04-07T06:28:11;100540.72;;;4.39;65.95
57885;BME280;43703;51.060;-0.086;2023-04-07T06:30:36;100538.26;;;4.09;66.63
57885;BME280;43703;51.060;-0.086;2023-04-07T06:33:01;100538.19;;;3.80;66.73
57885;BME280;43703;51.060;-0.086;2023-04-07T06:35:26;100541.54;;;4.04;67.25
57885;BME280;43703;51.060;-0.086;2023-04-07T06:37:52;100542.71;;;3.69;67.57
57885;BME280;43703;51.060;-0.086;2023-04-07T06:40:17;100544.75;;;4.38;66.92
57885;BME280;43703;51.060;-0.086;2023-04-07T06:42:42;100547.54;;;4.09;67.76
57885;BME280;43703;51.060;-0.086;2023-04-07T06:45:08;100549.07;;;4.20;67.02
57885;BME280;43703;51.060;-0.086;2023-04-07T06:47:32;100548.24;;;4.01;67.93
57885;BME280;43703;51.060;-0.086;2023-04-07T06:49:57;100547.80;;;4.21;68.02
57885;BME280;43703;51.060;-0.086;2023-04-07T06:52:22;100551.83;;;3.44;67.56
57885;BME280;43703;51.060;-0.086;2023-04-07T06:54:47;100552.74;;;4.19;68.60
57885;BME280;43703;51.060;-0.086;2023-04-07T06:57:12;100551.86;;;4.40;68.13
57885;BME280;43703;51.060;-0.086;2023-04-07T06:59:37;100551.41;;;4.26;67.71
57885;BME280;43703;51.060;-0.086;2023-04-07T07:02:02;100554.01;;;3.90;68.00
57885;BME280;43703;51.060;-0.086;2023-04-07T07:04:27;100553.36;;;4.95;69.66
57885;BME280;43703;51.060;-0.086;2023-04-07T07:06:52;100557.71;;;5.97;70.54
57885;BME280;43703;51.060;-0.086;2023-04-07T07:09:18;100558.87;;;5.86;65.11
57885;BME280;43703;51.060;-0.086;2023-04-07T07:11:43;100559.39;;;7.18;61.60
57885;BME280;43703;51.060;-0.086;2023-04-07T07:14:08;100566.01;;;8.22;59.31
57885;BME280;43703;51.060;-0.086;2023-04-07T07:16:33;100571.23;;;10.66;68.29
57885;BME280;43703;51.060;-0.086;2023-04-07T07:18:58;100569.44;;;10.38;53.66
57885;BME280;43703;51.060;-0.086;2023-04-07T07:21:24;100570.12;;;12.62;66.81
57885;BME280;43703;51.060;-0.086;2023-04-07T07:23:50;100572.11;;;12.50;51.86
57885;BME280;43703;51.060;-0.086;2023-04-07T07:26:15;100575.29;;;14.21;60.78
57885;BME280;43703;51.060;-0.086;2023-04-07T07:28:41;100575.77;;;14.02;50.50
57885;BME280;43703;51.060;-0.086;2023-04-07T07:31:09;100576.01;;;15.32;50.08
57885;BME280;43703;51.060;-0.086;2023-04-07T07:33:33;100579.61;;;14.68;42.81
57885;BME280;43703;51.060;-0.086;2023-04-07T07:35:58;100582.49;;;15.55;49.46
57885;BME280;43703;51.060;-0.086;2023-04-07T07:38:24;100582.20;;;16.31;47.75
57885;BME280;43703;51.060;-0.086;2023-04-07T07:40:49;100583.14;;;17.15;45.86
57885;BME280;43703;51.060;-0.086;2023-04-07T07:43:15;100586.90;;;16.69;41.18
57885;BME280;43703;51.060;-0.086;2023-04-07T07:45:43;100589.07;;;15.26;40.77
57885;BME280;43703;51.060;-0.086;2023-04-07T07:48:07;100589.96;;;17.19;40.29
57885;BME280;43703;51.060;-0.086;2023-04-07T07:50:32;100589.92;;;17.60;40.80
57885;BME280;43703;51.060;-0.086;2023-04-07T07:52:58;100590.95;;;18.56;39.14
57885;BME280;43703;51.060;-0.086;2023-04-07T07:55:24;100595.19;;;18.50;39.80
57885;BME280;43703;51.060;-0.086;2023-04-07T07:57:50;100596.13;;;18.56;35.92
57885;BME280;43703;51.060;-0.086;2023-04-07T08:00:15;100594.64;;;19.13;36.16
57885;BME280;43703;51.060;-0.086;2023-04-07T08:02:40;100600.46;;;18.85;36.57
57885;BME280;43703;51.060;-0.086;2023-04-07T08:05:07;100595.97;;;19.04;33.71
57885;BME280;43703;51.060;-0.086;2023-04-07T08:07:32;100592.22;;;19.51;34.49
57885;BME280;43703;51.060;-0.086;2023-04-07T08:09:58;100596.50;;;19.06;35.09
57885;BME280;43703;51.060;-0.086;2023-04-07T08:12:23;100594.71;;;19.59;35.12
57885;BME280;43703;51.060;-0.086;2023-04-07T08:14:49;100594.12;;;20.61;33.86
57885;BME280;43703;51.060;-0.086;2023-04-07T08:17:15;100598.41;;;21.13;33.51
57885;BME280;43703;51.060;-0.086;2023-04-07T08:19:41;100598.21;;;20.44;33.64
57885;BME280;43703;51.060;-0.086;2023-04-07T08:22:07;100599.06;;;20.79;33.83
57885;BME280;43703;51.060;-0.086;2023-04-07T08:24:33;100600.50;;;20.08;34.41
57885;BME280;43703;51.060;-0.086;2023-04-07T08:26:58;100603.16;;;19.41;33.50
57885;BME280;43703;51.060;-0.086;2023-04-07T08:29:24;100602.54;;;19.85;34.79
57885;BME280;43703;51.060;-0.086;2023-04-07T08:31:50;100609.85;;;22.16;32.97
57885;BME280;43703;51.060;-0.086;2023-04-07T08:34:16;100611.34;;;21.82;29.88
57885;BME280;43703;51.060;-0.086;2023-04-07T08:36:47;100610.52;;;22.92;30.89
57885;BME280;43703;51.060;-0.086;2023-04-07T08:39:07;100612.50;;;20.30;31.76
57885;BME280;43703;51.060;-0.086;2023-04-07T08:41:37;100610.61;;;21.92;31.22
57885;BME280;43703;51.060;-0.086;2023-04-07T08:44:00;100615.24;;;22.18;32.02
57885;BME280;43703;51.060;-0.086;2023-04-07T08:46:25;100617.59;;;22.84;29.63
57885;BME280;43703;51.060;-0.086;2023-04-07T08:48:51;100613.84;;;23.62;29.22
57885;BME280;43703;51.060;-0.086;2023-04-07T08:51:21;100617.35;;;24.48;28.34
57885;BME280;43703;51.060;-0.086;2023-04-07T08:53:48;100619.61;;;24.55;27.88
57885;BME280;43703;51.060;-0.086;2023-04-07T08:56:10;100623.80;;;24.40;28.80
57885;BME280;43703;51.060;-0.086;2023-04-07T08:58:35;100627.26;;;23.52;28.56
57885;BME280;43703;51.060;-0.086;2023-04-07T09:01:00;100629.52;;;21.80;29.37
57885;BME280;43703;51.060;-0.086;2023-04-07T09:03:26;100630.26;;;23.01;30.20
57885;BME280;43703;51.060;-0.086;2023-04-07T09:05:52;100626.15;;;23.80;29.12
57885;BME280;43703;51.060;-0.086;2023-04-07T09:08:17;100623.88;;;24.46;29.35
57885;BME280;43703;51.060;-0.086;2023-04-07T09:10:43;100627.24;;;25.13;26.63
57885;BME280;43703;51.060;-0.086;2023-04-07T09:13:09;100630.05;;;24.91;26.71
57885;BME280;43703;51.060;-0.086;2023-04-07T09:15:37;100630.67;;;25.89;26.52
57885;BME280;43703;51.060;-0.086;2023-04-07T09:18:05;100634.71;;;26.57;25.48
57885;BME280;43703;51.060;-0.086;2023-04-07T09:20:26;100631.38;;;25.49;25.99
57885;BME280;43703;51.060;-0.086;2023-04-07T09:22:52;100634.29;;;23.62;27.67
57885;BME280;43703;51.060;-0.086;2023-04-07T09:25:20;100632.43;;;24.83;27.23
57885;BME280;43703;51.060;-0.086;2023-04-07T09:30:11;100633.04;;;25.79;27.47
57885;BME280;43703;51.060;-0.086;2023-04-07T09:32:36;100630.58;;;25.92;26.89
57885;BME280;43703;51.060;-0.086;2023-04-07T09:35:01;100633.90;;;26.68;26.71
57885;BME280;43703;51.060;-0.086;2023-04-07T09:37:27;100635.59;;;25.66;27.19
57885;BME280;43703;51.060;-0.086;2023-04-07T09:39:53;100635.51;;;23.77;26.66
57885;BME280;43703;51.060;-0.086;2023-04-07T09:42:19;100636.95;;;22.00;26.59
57885;BME280;43703;51.060;-0.086;2023-04-07T09:44:45;100637.55;;;20.94;28.29
57885;BME280;43703;51.060;-0.086;2023-04-07T09:47:10;100635.30;;;22.32;30.64
57885;BME280;43703;51.060;-0.086;2023-04-07T09:49:49;100634.86;;;23.06;29.46
57885;BME280;43703;51.060;-0.086;2023-04-07T09:52:03;100634.25;;;22.56;28.50
57885;BME280;43703;51.060;-0.086;2023-04-07T09:54:33;100636.03;;;23.46;29.71
57885;BME280;43703;51.060;-0.086;2023-04-07T09:56:54;100635.64;;;23.75;29.49
57885;BME280;43703;51.060;-0.086;2023-04-07T09:59:20;100633.04;;;23.91;28.99
57885;BME280;43703;51.060;-0.086;2023-04-07T10:01:45;100632.45;;;24.47;27.26
57885;BME280;43703;51.060;-0.086;2023-04-07T10:04:12;100628.59;;;25.24;28.47
57885;BME280;43703;51.060;-0.086;2023-04-07T10:06:38;100635.10;;;26.84;24.85
57885;BME280;43703;51.060;-0.086;2023-04-07T10:09:03;100635.28;;;25.52;24.97
57885;BME280;43703;51.060;-0.086;2023-04-07T10:11:29;100634.41;;;26.43;25.09
57885;BME280;43703;51.060;-0.086;2023-04-07T10:13:55;100636.85;;;25.84;25.88
57885;BME280;43703;51.060;-0.086;2023-04-07T10:16:21;100635.27;;;26.39;23.21
57885;BME280;43703;51.060;-0.086;2023-04-07T10:18:47;100636.88;;;26.76;23.99
57885;BME280;43703;51.060;-0.086;2023-04-07T10:21:12;100635.31;;;24.61;23.82
57885;BME280;43703;51.060;-0.086;2023-04-07T10:23:48;100638.03;;;25.61;24.53
57885;BME280;43703;51.060;-0.086;2023-04-07T10:26:04;100637.47;;;25.08;24.44
57885;BME280;43703;51.060;-0.086;2023-04-07T10:28:31;100637.53;;;25.63;24.33
57885;BME280;43703;51.060;-0.086;2023-04-07T10:30:56;100641.59;;;27.10;24.28
57885;BME280;43703;51.060;-0.086;2023-04-07T10:38:13;100636.69;;;27.09;25.11
57885;BME280;43703;51.060;-0.086;2023-04-07T10:40:40;100630.86;;;26.26;22.87
57885;BME280;43703;51.060;-0.086;2023-04-07T10:43:05;100629.30;;;25.28;22.30
57885;BME280;43703;51.060;-0.086;2023-04-07T10:50:23;100632.82;;;19.13;30.80
57885;BME280;43703;51.060;-0.086;2023-04-07T10:53:03;100631.90;;;21.42;28.48
57885;BME280;43703;51.060;-0.086;2023-04-07T11:00:13;100625.40;;;22.04;30.15
57885;BME280;43703;51.060;-0.086;2023-04-07T11:02:32;100623.39;;;26.02;26.44
57885;BME280;43703;51.060;-0.086;2023-04-07T11:04:57;100623.98;;;25.67;23.70
57885;BME280;43703;51.060;-0.086;2023-04-07T11:09:48;100622.51;;;25.84;22.28
57885;BME280;43703;51.060;-0.086;2023-04-07T11:12:22;100622.85;;;26.08;24.00
57885;BME280;43703;51.060;-0.086;2023-04-07T11:14:40;100627.69;;;24.67;24.01
57885;BME280;43703;51.060;-0.086;2023-04-07T11:17:13;100626.88;;;25.52;23.93
57885;BME280;43703;51.060;-0.086;2023-04-07T11:24:30;100627.14;;;27.37;22.91
57885;BME280;43703;51.060;-0.086;2023-04-07T11:26:50;100624.90;;;24.76;20.92
57885;BME280;43703;51.060;-0.086;2023-04-07T11:29:15;100627.59;;;24.78;24.97
57885;BME280;43703;51.060;-0.086;2023-04-07T11:31:46;100631.74;;;27.05;22.77
57885;BME280;43703;51.060;-0.086;2023-04-07T11:34:07;100626.33;;;28.49;21.58
57885;BME280;43703;51.060;-0.086;2023-04-07T11:36:34;100629.08;;;25.35;23.47
57885;BME280;43703;51.060;-0.086;2023-04-07T11:38:59;100629.55;;;23.51;24.19
57885;BME280;43703;51.060;-0.086;2023-04-07T11:41:26;100633.26;;;21.51;25.92
57885;BME280;43703;51.060;-0.086;2023-04-07T11:46:17;100635.82;;;18.31;28.48
57885;BME280;43703;51.060;-0.086;2023-04-07T11:48:43;100630.05;;;19.82;28.72
57885;BME280;43703;51.060;-0.086;2023-04-07T11:51:16;100629.43;;;21.57;27.67
57885;BME280;43703;51.060;-0.086;2023-04-07T11:53:35;100631.29;;;21.90;27.55
57885;BME280;43703;51.060;-0.086;2023-04-07T11:56:04;100636.16;;;22.86;26.22
57885;BME280;43703;51.060;-0.086;2023-04-07T11:58:25;100635.22;;;24.33;26.09
57885;BME280;43703;51.060;-0.086;2023-04-07T12:00:53;100638.54;;;23.76;22.60
57885;BME280;43703;51.060;-0.086;2023-04-07T12:03:17;100630.24;;;24.07;25.81
57885;BME280;43703;51.060;-0.086;2023-04-07T12:05:43;100637.82;;;23.46;25.67
57885;BME280;43703;51.060;-0.086;2023-04-07T12:08:08;100626.76;;;25.27;20.93
57885;BME280;43703;51.060;-0.086;2023-04-07T12:10:34;100627.08;;;24.98;21.77
57885;BME280;43703;51.060;-0.086;2023-04-07T12:13:00;100635.05;;;23.06;22.07
57885;BME280;43703;51.060;-0.086;2023-04-07T12:15:26;100632.73;;;24.59;24.56
57885;BME280;43703;51.060;-0.086;2023-04-07T12:17:52;100635.19;;;23.41;26.95
57885;BME280;43703;51.060;-0.086;2023-04-07T12:20:17;100634.76;;;21.46;25.74
57885;BME280;43703;51.060;-0.086;2023-04-07T12:22:43;100632.55;;;20.28;28.22
57885;BME280;43703;51.060;-0.086;2023-04-07T12:25:09;100629.95;;;21.34;28.35
57885;BME280;43703;51.060;-0.086;2023-04-07T12:27:35;100629.79;;;20.24;27.32
57885;BME280;43703;51.060;-0.086;2023-04-07T12:30:01;100636.62;;;18.85;27.07
57885;BME280;43703;51.060;-0.086;2023-04-07T12:32:27;100634.75;;;19.11;28.61
57885;BME280;43703;51.060;-0.086;2023-04-07T12:34:52;100633.88;;;18.66;31.02
57885;BME280;43703;51.060;-0.086;2023-04-07T12:37:18;100632.10;;;18.33;29.96
57885;BME280;43703;51.060;-0.086;2023-04-07T12:39:44;100629.49;;;18.67;30.28
57885;BME280;43703;51.060;-0.086;2023-04-07T12:42:10;100629.11;;;18.65;29.69
57885;BME280;43703;51.060;-0.086;2023-04-07T12:44:36;100626.95;;;18.83;30.19
57885;BME280;43703;51.060;-0.086;2023-04-07T12:47:02;100625.38;;;17.92;29.19
57885;BME280;43703;51.060;-0.086;2023-04-07T12:49:28;100624.33;;;18.19;30.58
57885;BME280;43703;51.060;-0.086;2023-04-07T12:51:54;100618.12;;;16.69;34.29
57885;BME280;43703;51.060;-0.086;2023-04-07T12:54:19;100628.28;;;15.30;38.91
57885;BME280;43703;51.060;-0.086;2023-04-07T12:56:45;100628.50;;;16.49;33.90
57885;BME280;43703;51.060;-0.086;2023-04-07T12:59:11;100633.66;;;15.45;34.65
57885;BME280;43703;51.060;-0.086;2023-04-07T13:01:37;100629.54;;;16.00;36.10
57885;BME280;43703;51.060;-0.086;2023-04-07T13:04:03;100631.23;;;16.09;33.54